Time;durP1;ratioP1;P1;durP2;ratioP2;P2;SDS_P1;SDS_P2;PMS_P1;PMS_P2;Temp;Humidity;BMP_temperature;BMP_pressure;BME280_temperature;BME280_humidity;BME280_pressure;Samples;Min_cycle;Max_cycle;Signal;HPM_P1;HPM_P2
2021/05/28 00:00:21;;;;;;;4.80;2.50;;;;;;;;;;6197130;23;20213;-92
2021/05/28 00:03:26;;;;;;;5.10;2.33;;;;;;;;;;6199773;23;20155;-90
2021/05/28 00:06:31;;;;;;;7.55;2.22;;;;;;;;;;6216880;23;20214;-92
2021/05/28 00:09:36;;;;;;;3.65;2.30;;;;;;;;;;6206412;23;20176;-92
2021/05/28 00:12:43;;;;;;;2.70;1.98;;;;;;;;;;6197818;23;20595;-93
2021/05/28 00:15:48;;;;;;;3.40;2.15;;;;;;;;;;6198155;23;20187;-90
2021/05/28 00:18:52;;;;;;;2.72;1.92;;;;;;;;;;6198004;23;20196;-92
2021/05/28 00:21:57;;;;;;;7.85;2.05;;;;;;;;;;6198629;23;20259;-90
2021/05/28 00:25:03;;;;;;;3.33;2.05;;;;;;;;;;6201234;23;20172;-91
2021/05/28 00:28:08;;;;;;;4.28;2.10;;;;;;;;;;6199136;23;20184;-92
2021/05/28 00:31:14;;;;;;;4.70;2.35;;;;;;;;;;6198120;23;20642;-91
2021/05/28 00:34:18;;;;;;;3.88;2.40;;;;;;;;;;6197801;23;20542;-92
2021/05/28 00:37:23;;;;;;;2.67;2.00;;;;;;;;;;6197709;23;20163;-91
2021/05/28 00:40:27;;;;;;;6.93;2.10;;;;;;;;;;6198582;23;20195;-92
2021/05/28 00:43:32;;;;;;;3.35;2.50;;;;;;;;;;6202684;23;20212;-92
2021/05/28 00:46:37;;;;;;;5.38;2.25;;;;;;;;;;6197698;23;20164;-92
2021/05/28 00:49:42;;;;;;;3.63;2.17;;;;;;;;;;6196133;23;20568;-91
2021/05/28 00:52:51;;;;;;;3.25;2.40;;;;;;;;;;6195270;23;20168;-93
2021/05/28 00:55:57;;;;;;;4.85;2.67;;;;;;;;;;6198090;23;20494;-92
2021/05/28 00:59:03;;;;;;;4.32;2.25;;;;;;;;;;6198245;23;20239;-92
2021/05/28 01:02:08;;;;;;;7.18;2.50;;;;;;;;;;6197728;23;20267;-91
2021/05/28 01:05:13;;;;;;;3.80;2.10;;;;;;;;;;6198790;23;20171;-92
2021/05/28 01:08:17;;;;;;;3.88;2.25;;;;;;;;;;6198555;23;20246;-92
2021/05/28 01:11:22;;;;;;;3.45;2.40;;;;;;;;;;6198639;23;20168;-92
2021/05/28 01:14:26;;;;;;;6.35;2.10;;;;;;;;;;6198500;23;20160;-91
2021/05/28 01:17:32;;;;;;;4.13;1.90;;;;;;;;;;6198765;23;20198;-90
2021/05/28 01:20:36;;;;;;;5.07;2.10;;;;;;;;;;6198390;23;20171;-92
2021/05/28 01:23:42;;;;;;;3.92;2.20;;;;;;;;;;6198372;23;20267;-93
2021/05/28 01:26:47;;;;;;;4.68;2.25;;;;;;;;;;6196379;23;20180;-92
2021/05/28 01:29:52;;;;;;;2.85;2.13;;;;;;;;;;6197547;23;20168;-93
2021/05/28 01:32:57;;;;;;;5.30;2.35;;;;;;;;;;6182259;23;20172;-91
2021/05/28 01:36:01;;;;;;;3.92;2.30;;;;;;;;;;6199649;23;20261;-92
2021/05/28 01:39:07;;;;;;;3.22;2.10;;;;;;;;;;6199094;23;20264;-92
2021/05/28 01:42:12;;;;;;;9.10;2.35;;;;;;;;;;6198073;23;20188;-92
2021/05/28 01:45:17;;;;;;;5.57;2.72;;;;;;;;;;6197705;23;20164;-91
2021/05/28 01:48:22;;;;;;;4.53;2.70;;;;;;;;;;6197477;23;20363;-93
2021/05/28 01:51:27;;;;;;;5.45;2.30;;;;;;;;;;6198042;23;20164;-93
2021/05/28 01:54:33;;;;;;;3.58;2.58;;;;;;;;;;6198286;23;20168;-92
2021/05/28 01:57:37;;;;;;;3.70;2.42;;;;;;;;;;6207566;23;20215;-91
2021/05/28 02:00:42;;;;;;;5.82;2.35;;;;;;;;;;6196633;23;20489;-92
2021/05/28 02:03:47;;;;;;;6.85;2.45;;;;;;;;;;6198716;23;20163;-93
2021/05/28 02:06:52;;;;;;;4.22;2.55;;;;;;;;;;6196807;23;20167;-93
2021/05/28 02:09:58;;;;;;;4.82;2.78;;;;;;;;;;6198137;23;20175;-91
2021/05/28 02:13:02;;;;;;;5.18;2.75;;;;;;;;;;6198093;23;20167;-91
2021/05/28 02:16:07;;;;;;;3.58;2.50;;;;;;;;;;6196779;23;20180;-91
2021/05/28 02:19:15;;;;;;;3.47;2.45;;;;;;;;;;6195940;23;20239;-91
2021/05/28 02:22:20;;;;;;;3.75;2.75;;;;;;;;;;6198393;23;20184;-92
2021/05/28 02:25:26;;;;;;;5.45;2.78;;;;;;;;;;6196414;23;20260;-93
2021/05/28 02:28:30;;;;;;;3.95;2.63;;;;;;;;;;6196802;23;20209;-93
2021/05/28 02:31:35;;;;;;;3.55;2.45;;;;;;;;;;6198302;23;20200;-91
2021/05/28 02:34:39;;;;;;;5.60;2.80;;;;;;;;;;6196067;23;20160;-91
2021/05/28 02:37:44;;;;;;;4.50;2.97;;;;;;;;;;6196231;23;20195;-91
2021/05/28 02:40:49;;;;;;;4.05;3.17;;;;;;;;;;6197433;23;20196;-92
2021/05/28 02:43:53;;;;;;;8.73;3.10;;;;;;;;;;6196603;23;20175;-92
2021/05/28 02:46:58;;;;;;;5.70;2.88;;;;;;;;;;6198102;23;20171;-91
2021/05/28 02:50:04;;;;;;;5.55;3.58;;;;;;;;;;6197403;23;20246;-93
2021/05/28 02:53:10;;;;;;;6.20;3.28;;;;;;;;;;6195637;23;20164;-93
2021/05/28 02:56:16;;;;;;;7.80;3.38;;;;;;;;;;6196688;23;20247;-91
2021/05/28 02:59:20;;;;;;;5.80;2.90;;;;;;;;;;6181347;23;20518;-92
2021/05/28 03:02:25;;;;;;;10.80;3.22;;;;;;;;;;6196335;23;20192;-92
2021/05/28 03:05:29;;;;;;;4.90;2.88;;;;;;;;;;6198097;23;20279;-92
2021/05/28 03:08:34;;;;;;;7.05;3.75;;;;;;;;;;6198537;23;20630;-92
2021/05/28 03:11:39;;;;;;;8.77;4.07;;;;;;;;;;6178662;23;20187;-92
2021/05/28 03:14:44;;;;;;;7.55;3.90;;;;;;;;;;6197644;23;20168;-91
2021/05/28 03:17:49;;;;;;;5.60;3.45;;;;;;;;;;6199001;23;20183;-92
2021/05/28 03:21:07;;;;;;;5.80;3.65;;;;;;;;;;6197425;23;20220;-91
2021/05/28 03:24:12;;;;;;;5.20;3.00;;;;;;;;;;6198054;23;20224;-92
2021/05/28 03:27:18;;;;;;;5.63;3.70;;;;;;;;;;6179420;23;20191;-92
2021/05/28 03:30:23;;;;;;;4.85;3.30;;;;;;;;;;6197493;23;20190;-90
2021/05/28 03:33:27;;;;;;;7.60;3.22;;;;;;;;;;6199138;23;20568;-91
2021/05/28 03:36:32;;;;;;;7.60;4.18;;;;;;;;;;6199215;23;20171;-92
2021/05/28 03:39:37;;;;;;;6.47;3.45;;;;;;;;;;6198324;23;20199;-93
2021/05/28 03:42:42;;;;;;;6.82;3.90;;;;;;;;;;6199463;23;20171;-92
2021/05/28 03:45:47;;;;;;;13.00;4.22;;;;;;;;;;6198364;23;20172;-91
2021/05/28 03:48:52;;;;;;;7.05;3.75;;;;;;;;;;6198161;23;20209;-92
2021/05/28 03:51:57;;;;;;;5.57;3.58;;;;;;;;;;6198026;23;20159;-92
2021/05/28 03:55:01;;;;;;;10.05;3.72;;;;;;;;;;6198966;23;20508;-94
2021/05/28 03:58:07;;;;;;;5.70;3.58;;;;;;;;;;6214001;23;20210;-92
2021/05/28 04:01:47;;;;;;;5.72;3.60;;;;;;;;;;6197973;23;20485;-91
2021/05/28 04:04:51;;;;;;;10.32;4.28;;;;;;;;;;6200211;23;20538;-92
2021/05/28 04:07:56;;;;;;;7.72;3.83;;;;;;;;;;6199959;23;20176;-93
2021/05/28 04:11:01;;;;;;;16.85;4.68;;;;;;;;;;6199902;23;20172;-93
2021/05/28 04:14:06;;;;;;;8.85;4.22;;;;;;;;;;6198884;23;20240;-92
2021/05/28 04:17:49;;;;;;;8.73;4.38;;;;;;;;;;6198770;23;20164;-93
2021/05/28 04:20:54;;;;;;;7.28;3.97;;;;;;;;;;6199993;23;20153;-92
2021/05/28 04:24:00;;;;;;;8.25;4.53;;;;;;;;;;6200041;23;20176;-91
2021/05/28 04:27:05;;;;;;;7.82;4.22;;;;;;;;;;6198979;23;20271;-93
2021/05/28 04:30:11;;;;;;;8.00;4.88;;;;;;;;;;6199108;23;20160;-90
2021/05/28 04:33:16;;;;;;;6.47;4.28;;;;;;;;;;6198985;23;20187;-93
2021/05/28 04:36:20;;;;;;;6.72;4.60;;;;;;;;;;6198905;23;20164;-93
2021/05/28 04:39:26;;;;;;;7.88;4.50;;;;;;;;;;6200043;23;20255;-90
2021/05/28 04:42:31;;;;;;;6.18;4.50;;;;;;;;;;6199666;23;20172;-93
2021/05/28 04:45:37;;;;;;;6.32;3.78;;;;;;;;;;6197564;23;20247;-90
2021/05/28 04:48:41;;;;;;;8.07;3.70;;;;;;;;;;6202315;23;20171;-91
2021/05/28 04:51:46;;;;;;;7.30;4.10;;;;;;;;;;6200203;23;20221;-92
2021/05/28 04:54:51;;;;;;;6.03;4.07;;;;;;;;;;6201121;23;20183;-91
2021/05/28 04:57:56;;;;;;;5.72;3.90;;;;;;;;;;6198338;23;20199;-89
2021/05/28 05:01:02;;;;;;;13.43;4.10;;;;;;;;;;6199833;23;20168;-92
2021/05/28 05:04:07;;;;;;;6.63;4.53;;;;;;;;;;6200043;23;20223;-91
2021/05/28 05:07:11;;;;;;;7.07;4.55;;;;;;;;;;6199111;23;20151;-91
2021/05/28 05:10:16;;;;;;;13.27;5.35;;;;;;;;;;6217178;22;20623;-93
2021/05/28 05:13:21;;;;;;;12.85;5.75;;;;;;;;;;6200036;23;20615;-92
2021/05/28 05:16:27;;;;;;;12.57;4.97;;;;;;;;;;6198712;23;20225;-91
2021/05/28 05:19:31;;;;;;;7.10;5.03;;;;;;;;;;6202714;23;20215;-92
2021/05/28 05:22:36;;;;;;;7.78;5.00;;;;;;;;;;6199347;23;20199;-90
2021/05/28 05:25:42;;;;;;;8.57;4.40;;;;;;;;;;6199581;23;20168;-91
2021/05/28 05:28:46;;;;;;;7.47;3.95;;;;;;;;;;6217815;23;20191;-92
2021/05/28 05:31:52;;;;;;;7.20;4.60;;;;;;;;;;6199480;23;20171;-92
2021/05/28 05:38:18;;;;;;;10.93;4.05;;;;;;;;;;6201013;23;20215;-92
2021/05/28 05:41:26;;;;;;;7.47;4.70;;;;;;;;;;6201967;23;20167;-92
2021/05/28 05:44:40;;;;;;;8.52;4.00;;;;;;;;;;6201688;23;20249;-92
2021/05/28 05:47:47;;;;;;;8.45;4.03;;;;;;;;;;6218466;22;20606;-92
2021/05/28 05:50:52;;;;;;;6.40;4.47;;;;;;;;;;6201000;23;20159;-91
2021/05/28 05:53:56;;;;;;;6.13;3.88;;;;;;;;;;6217901;23;20171;-93
2021/05/28 05:57:03;;;;;;;5.25;3.85;;;;;;;;;;6217342;23;20203;-93
2021/05/28 06:00:09;;;;;;;7.00;3.70;;;;;;;;;;6202765;23;20167;-92
2021/05/28 06:03:15;;;;;;;5.43;3.80;;;;;;;;;;6206122;23;20176;-91
2021/05/28 06:06:20;;;;;;;8.27;4.22;;;;;;;;;;6202874;23;20212;-93
2021/05/28 06:09:26;;;;;;;4.90;3.50;;;;;;;;;;6217915;22;20175;-93
2021/05/28 06:12:31;;;;;;;6.40;3.50;;;;;;;;;;6203831;23;20207;-94
2021/05/28 06:15:37;;;;;;;6.72;3.33;;;;;;;;;;6204396;23;20163;-94
2021/05/28 06:18:44;;;;;;;6.25;3.10;;;;;;;;;;6205659;23;20219;-93
2021/05/28 06:21:49;;;;;;;13.18;4.10;;;;;;;;;;6222936;22;20164;-94
2021/05/28 12:46:19;;;;;;;4.22;1.70;;;;;;;;;;6198460;23;20246;-89
2021/05/28 12:49:30;;;;;;;1.77;1.40;;;;;;;;;;6202721;23;20225;-92
2021/05/28 12:52:35;;;;;;;3.00;1.30;;;;;;;;;;6203372;23;20171;-91
2021/05/28 12:55:40;;;;;;;3.60;1.55;;;;;;;;;;6203258;23;20559;-90
2021/05/28 12:58:47;;;;;;;5.03;1.70;;;;;;;;;;6202670;23;20215;-90
2021/05/28 13:01:55;;;;;;;2.22;1.60;;;;;;;;;;6202805;23;20175;-91
2021/05/28 13:04:59;;;;;;;3.30;1.52;;;;;;;;;;6202284;23;20207;-89
2021/05/28 13:08:07;;;;;;;2.75;1.63;;;;;;;;;;6203596;23;20219;-91
2021/05/28 13:11:12;;;;;;;2.83;1.52;;;;;;;;;;6205378;23;20213;-89
2021/05/28 13:14:21;;;;;;;2.85;1.60;;;;;;;;;;6208314;23;20241;-90
2021/05/28 13:17:32;;;;;;;4.10;1.55;;;;;;;;;;6205688;23;20209;-90
2021/05/28 13:24:05;;;;;;;2.78;1.60;;;;;;;;;;6188165;23;20583;-90
2021/05/28 21:29:10;;;;;;;10.48;5.28;;;;;;;;;;6079462;23;20173;-90
2021/05/28 21:32:15;;;;;;;11.45;5.63;;;;;;;;;;6078118;23;20507;-89
2021/05/28 21:35:20;;;;;;;10.10;4.53;;;;;;;;;;6078297;23;20174;-89
2021/05/28 21:38:25;;;;;;;8.07;3.88;;;;;;;;;;6079222;23;20170;-89
2021/05/28 21:41:29;;;;;;;7.78;4.78;;;;;;;;;;6076881;23;20202;-89
2021/05/28 21:44:35;;;;;;;7.57;4.70;;;;;;;;;;6078847;23;20218;-91
2021/05/28 21:47:40;;;;;;;12.25;5.15;;;;;;;;;;6077536;23;20175;-90
2021/05/28 21:54:10;;;;;;;8.50;4.90;;;;;;;;;;6060414;23;20705;-89
2021/05/28 21:57:14;;;;;;;11.95;4.47;;;;;;;;;;6061911;23;20186;-90
2021/05/28 22:00:21;;;;;;;9.38;4.43;;;;;;;;;;6080742;23;20238;-90
2021/05/28 22:03:52;;;;;;;6.90;4.30;;;;;;;;;;6079889;23;20175;-89
2021/05/28 22:06:56;;;;;;;9.15;4.53;;;;;;;;;;6080777;23;20211;-90
2021/05/28 22:10:02;;;;;;;8.07;3.97;;;;;;;;;;6077445;23;20214;-89
2021/05/28 22:13:07;;;;;;;14.27;5.47;;;;;;;;;;6076645;23;20182;-89
2021/05/28 22:16:12;;;;;;;15.90;5.10;;;;;;;;;;6079126;23;20190;-91
2021/05/28 22:19:17;;;;;;;12.90;6.28;;;;;;;;;;6078752;23;20359;-89
2021/05/28 22:22:21;;;;;;;17.02;7.38;;;;;;;;;;6076165;23;20187;-91
2021/05/28 22:25:26;;;;;;;15.73;7.60;;;;;;;;;;6077482;23;20170;-90
2021/05/28 22:28:34;;;;;;;9.38;4.30;;;;;;;;;;6049001;23;20249;-91
2021/05/28 22:35:02;;;;;;;6.90;4.60;;;;;;;;;;6048207;23;20202;-91
2021/05/28 22:38:06;;;;;;;6.93;4.28;;;;;;;;;;6046636;23;20175;-89
2021/05/28 22:41:11;;;;;;;7.13;4.43;;;;;;;;;;6029517;23;20236;-90
2021/05/28 22:44:18;;;;;;;8.73;3.70;;;;;;;;;;6030085;23;20175;-89
2021/05/28 22:47:23;;;;;;;12.02;4.15;;;;;;;;;;6046648;23;20188;-89
2021/05/28 22:50:28;;;;;;;7.43;4.47;;;;;;;;;;6045658;23;20235;-89
2021/05/28 22:53:33;;;;;;;7.82;3.88;;;;;;;;;;6045764;23;20171;-90
2021/05/28 22:56:40;;;;;;;7.45;3.97;;;;;;;;;;6046902;23;20179;-89
2021/05/28 22:59:45;;;;;;;6.50;3.95;;;;;;;;;;6030546;23;20239;-89
2021/05/28 23:02:50;;;;;;;8.48;3.90;;;;;;;;;;6048179;23;20236;-89
2021/05/28 23:05:55;;;;;;;6.45;4.05;;;;;;;;;;6051887;23;20246;-89
2021/05/28 23:12:46;;;;;;;9.30;3.72;;;;;;;;;;5997593;23;20677;-91
2021/05/28 23:15:52;;;;;;;7.32;3.97;;;;;;;;;;6038816;23;20172;-91
2021/05/28 23:18:58;;;;;;;8.20;3.95;;;;;;;;;;6033715;23;20247;-90
2021/05/28 23:22:03;;;;;;;11.30;3.80;;;;;;;;;;6047566;23;20506;-90
2021/05/28 23:25:09;;;;;;;7.38;3.70;;;;;;;;;;6030856;23;20170;-90
2021/05/28 23:28:15;;;;;;;6.35;3.75;;;;;;;;;;6049082;23;20198;-90
2021/05/28 23:31:20;;;;;;;9.68;3.95;;;;;;;;;;6049282;23;20175;-90
2021/05/28 23:34:26;;;;;;;7.72;3.95;;;;;;;;;;6050282;23;20212;-90
2021/05/28 23:37:30;;;;;;;6.93;3.90;;;;;;;;;;6050151;23;20282;-89
2021/05/28 23:40:35;;;;;;;7.40;3.80;;;;;;;;;;6049967;23;20203;-89
2021/05/28 23:43:42;;;;;;;7.03;3.58;;;;;;;;;;6051995;23;20551;-90
2021/05/28 23:46:47;;;;;;;7.28;3.83;;;;;;;;;;6048464;23;20163;-90
2021/05/28 23:49:54;;;;;;;6.15;3.60;;;;;;;;;;6032420;23;20171;-91
2021/05/28 23:52:59;;;;;;;5.20;3.10;;;;;;;;;;6031943;23;20220;-90
2021/05/28 23:56:05;;;;;;;8.57;3.65;;;;;;;;;;6052957;23;20241;-90
2021/05/28 23:59:09;;;;;;;7.60;3.65;;;;;;;;;;6036033;23;20219;-89
